Estació meteorològica de Bellmunt (Osona, Osona)

Consulta les dades en temps real de l'estació meteorològica de Bellmunt





Hora UTC 08:15
Temperatura 23.1 ºC
Humitat 61.0 %
Pressió 1016.7 hPa
Pluja 0.0 mm
Velocitat vent 1.6 km/h
Direcció vent WSW

Dades diàries 2026-09-02



Hora UTC (hivern +1h; estiu +2h)
Temperatura (ºC) Humitat (%) Pressió (hPa) Velocitat vent (km/h) Precipitació (mm)
Hora UTC Aire Humitat Pressió Vel. Dir. Vel. Max Dir. Intent. màx 5 min.
00:05 18.4 69.0 1015.4 0.0 WSW 0.0 0.0
00:10 18.5 70.0 1015.5 0.0 WSW 0.0 0.0
00:15 18.7 69.0 1015.5 0.0 WSW 0.0 0.0
00:20 18.8 69.0 1015.5 0.0 WSW 0.0 0.0
00:25 18.9 68.0 1015.4 0.0 WSW 0.0 0.0
00:30 18.9 68.0 1015.4 6.4 ENE 8.0 0.0
00:35 19.2 67.0 1015.5 4.8 ENE 8.0 0.0
00:40 19.3 66.0 1015.6 1.6 ENE 8.0 0.0
00:45 19.4 66.0 1015.6 1.6 ENE 6.4 0.0
00:50 19.2 66.0 1015.5 0.0 ENE 4.8 0.0
00:55 18.9 66.0 1015.5 0.0 ENE 0.0 0.0
01:00 18.6 66.0 1015.4 1.6 N 1.6 0.0
01:05 18.3 67.0 1015.3 0.0 N 1.6 0.0
01:10 18.3 68.0 1015.3 0.0 NNE 1.6 0.0
01:15 18.3 68.0 1015.3 0.0 NNE 0.0 0.0
01:20 18.2 68.0 1015.4 0.0 NNE 0.0 0.0
01:25 18.1 68.0 1015.4 0.0 NNE 0.0 0.0
01:30 17.9 69.0 1015.3 0.0 NNE 0.0 0.0
01:35 17.7 69.0 1015.4 0.0 NNE 0.0 0.0
01:40 17.6 70.0 1015.3 0.0 NNE 0.0 0.0
01:45 17.4 70.0 1015.3 0.0 NNE 0.0 0.0
01:50 17.3 70.0 1015.3 0.0 NNE 0.0 0.0
01:55 17.2 71.0 1015.2 0.0 NNE 0.0 0.0
02:00 17.3 71.0 1015.2 0.0 NNE 0.0 0.0
02:05 17.2 72.0 1015.3 0.0 N 0.0 0.0
02:10 17.3 72.0 1015.3 0.0 N 0.0 0.0
02:15 17.3 72.0 1015.2 0.0 N 0.0 0.0
02:20 17.4 72.0 1015.2 0.0 NE 0.0 0.0
02:25 17.5 72.0 1015.3 0.0 NE 0.0 0.0
02:30 17.5 71.0 1015.3 0.0 NE 0.0 0.0
02:35 17.4 71.0 1015.3 0.0 NNE 0.0 0.0
02:40 17.4 71.0 1015.3 4.8 NNE 4.8 0.0
02:45 17.4 71.0 1015.3 4.8 NNE 6.4 0.0
02:50 17.4 71.0 1015.3 4.8 NNE 6.4 0.0
02:55 17.4 71.0 1015.1 0.0 ENE 6.4 0.0
03:00 17.4 71.0 1015.2 0.0 SSE 4.8 0.0
03:05 17.3 71.0 1015.2 0.0 SSE 3.2 0.0
03:10 17.3 71.0 1015.2 0.0 SE 0.0 0.0
03:15 17.1 71.0 1015.2 0.0 SE 0.0 0.0
03:20 17.0 71.0 1015.3 0.0 SW 0.0 0.0
03:25 16.8 72.0 1015.3 0.0 SW 0.0 0.0
03:30 16.7 72.0 1015.4 0.0 SW 0.0 0.0
03:35 16.5 72.0 1015.3 0.0 S 0.0 0.0
03:40 16.7 73.0 1015.3 0.0 SSE 0.0 0.0
03:45 16.8 73.0 1015.3 0.0 E 0.0 0.0
03:50 16.7 73.0 1015.3 0.0 ENE 0.0 0.0
03:55 16.7 73.0 1015.2 1.6 ENE 4.8 0.0
04:00 16.7 73.0 1015.3 0.0 ESE 4.8 0.0
04:05 16.4 73.0 1015.3 0.0 ESE 1.6 0.0
04:10 16.4 73.0 1015.3 0.0 NNW 0.0 0.0
04:15 16.4 73.0 1015.3 0.0 NNW 0.0 0.0
04:20 16.4 73.0 1015.2 0.0 NW 0.0 0.0
04:25 16.6 74.0 1015.3 0.0 NW 0.0 0.0
04:30 16.6 74.0 1015.3 0.0 NW 0.0 0.0
04:35 16.3 74.0 1015.2 0.0 W 0.0 0.0
04:40 16.1 74.0 1015.2 0.0 W 0.0 0.0
04:45 15.9 74.0 1015.3 0.0 W 0.0 0.0
04:50 15.8 74.0 1015.3 0.0 W 0.0 0.0
04:55 15.9 74.0 1015.3 0.0 NE 0.0 0.0
05:00 16.1 74.0 1015.3 0.0 ENE 0.0 0.0
05:05 16.3 74.0 1015.3 0.0 ENE 0.0 0.0
05:10 16.3 74.0 1015.4 0.0 ENE 0.0 0.0
05:15 16.2 74.0 1015.4 0.0 ENE 0.0 0.0
05:20 16.2 74.0 1015.4 0.0 ENE 0.0 0.0
05:25 16.2 74.0 1015.5 4.8 NNE 4.8 0.0
05:30 16.3 74.0 1015.5 3.2 NE 6.4 0.0
05:35 16.4 74.0 1015.5 0.0 NE 6.4 0.0
05:40 16.4 74.0 1015.5 0.0 ESE 3.2 0.0
05:45 16.2 74.0 1015.5 0.0 ESE 3.2 0.0
05:50 16.3 74.0 1015.6 0.0 SSW 1.6 0.0
05:55 16.4 74.0 1015.7 0.0 SSW 1.6 0.0
06:00 16.5 74.0 1015.7 0.0 SW 0.0 0.0
06:05 16.7 74.0 1015.8 0.0 SW 0.0 0.0
06:10 16.9 74.0 1015.8 0.0 SW 0.0 0.0
06:15 17.2 73.0 1015.8 0.0 SSE 0.0 0.0
06:20 17.6 73.0 1015.9 0.0 SSE 0.0 0.0
06:25 17.9 72.0 1016.0 0.0 SSE 0.0 0.0
06:30 18.2 71.0 1016.1 0.0 WSW 0.0 0.0
06:35 18.2 71.0 1016.1 0.0 WSW 0.0 0.0
06:40 18.3 71.0 1016.2 0.0 WSW 0.0 0.0
06:45 18.6 71.0 1016.2 0.0 WSW 0.0 0.0
06:50 19.2 70.0 1016.2 0.0 WSW 0.0 0.0
06:55 19.7 67.0 1016.1 0.0 WSW 0.0 0.0
07:00 20.2 66.0 1016.2 0.0 WSW 0.0 0.0
07:05 20.7 64.0 1016.3 0.0 WSW 0.0 0.0
07:10 21.0 64.0 1016.2 0.0 WSW 0.0 0.0
07:15 20.9 64.0 1016.3 0.0 WSW 0.0 0.0
07:20 20.8 65.0 1016.2 4.8 WSW 4.8 0.0
07:25 20.8 65.0 1016.2 1.6 WSW 6.4 0.0
07:30 20.8 64.0 1016.2 0.0 WSW 6.4 0.0
07:35 21.0 64.0 1016.3 0.0 WSW 4.8 0.0
07:40 21.4 65.0 1016.2 0.0 WSW 0.0 0.0
07:45 21.6 64.0 1016.3 0.0 WSW 0.0 0.0
07:50 21.8 63.0 1016.3 3.2 WSW 4.8 0.0
07:55 21.9 63.0 1016.4 1.6 WSW 6.4 0.0
08:00 21.9 63.0 1016.5 4.8 WSW 6.4 0.0
08:05 22.1 63.0 1016.5 0.0 WSW 6.4 0.0
08:10 22.6 62.0 1016.6 0.0 WSW 3.2 0.0
08:15 23.1 61.0 1016.7 1.6 WSW 4.8 0.0
Màxima 23.1 74.0 1016.7 6.4 ENE 8.0 0.0
Mínima 15.8 61.0 1015.1
Total 0.0